createdAt,value
2023-11-04T00:02:23.086Z,3.50
2023-11-04T00:07:24.650Z,3.25
2023-11-04T00:12:26.345Z,3.38
2023-11-04T00:17:28.423Z,3.65
2023-11-04T00:22:31.041Z,3.38
2023-11-04T00:27:32.777Z,3.60
2023-11-04T00:32:34.338Z,3.50
2023-11-04T00:37:35.870Z,3.80
2023-11-04T00:42:38.803Z,3.67
2023-11-04T00:47:40.266Z,3.30
2023-11-04T00:52:41.771Z,3.80
2023-11-04T00:57:43.256Z,3.58
2023-11-04T01:02:44.793Z,3.70
2023-11-04T01:07:46.286Z,4.43
2023-11-04T01:12:47.805Z,3.88
2023-11-04T01:17:49.382Z,4.47
2023-11-04T01:22:51.041Z,4.07
2023-11-04T01:27:52.579Z,4.25
2023-11-04T01:32:54.111Z,4.10
2023-11-04T01:37:55.706Z,4.13
2023-11-04T01:42:57.229Z,4.03
2023-11-04T01:47:58.773Z,4.13
2023-11-04T01:53:00.393Z,4.00
2023-11-04T01:58:02.230Z,4.22
2023-11-04T02:03:04.099Z,4.30
2023-11-04T02:08:05.636Z,4.18
2023-11-04T02:13:07.272Z,4.50
2023-11-04T02:18:09.171Z,3.88
2023-11-04T02:23:10.672Z,4.30
2023-11-04T02:28:12.143Z,4.80
2023-11-04T02:33:13.618Z,5.07
2023-11-04T02:38:15.109Z,5.15
2023-11-04T02:43:16.637Z,5.82
2023-11-04T02:48:18.288Z,5.68
2023-11-04T02:53:19.884Z,6.00
2023-11-04T02:58:21.323Z,6.05
2023-11-04T03:03:22.830Z,6.45
2023-11-04T03:08:25.616Z,6.43
2023-11-04T03:13:27.058Z,6.10
2023-11-04T03:18:28.677Z,6.70
2023-11-04T03:23:30.104Z,7.10
2023-11-04T03:28:31.866Z,7.22
2023-11-04T03:33:33.555Z,7.30
2023-11-04T03:38:35.523Z,6.90
2023-11-04T03:43:36.980Z,7.03
2023-11-04T03:48:38.738Z,8.30
2023-11-04T03:53:42.051Z,7.50
2023-11-04T03:58:44.437Z,7.47
2023-11-04T04:03:46.122Z,7.85
2023-11-04T04:08:47.971Z,8.00
2023-11-04T04:13:49.642Z,8.48
2023-11-04T04:18:51.740Z,7.40
2023-11-04T04:23:53.262Z,7.95
2023-11-04T04:28:54.680Z,8.77
2023-11-04T04:33:56.737Z,7.65
2023-11-04T04:38:58.413Z,8.18
2023-11-04T04:43:59.802Z,8.25
2023-11-04T04:49:01.361Z,9.20
2023-11-04T04:54:02.802Z,8.73
2023-11-04T04:59:04.277Z,8.43
2023-11-04T05:04:05.941Z,8.52
2023-11-04T05:09:07.607Z,8.85
2023-11-04T05:14:09.140Z,8.40
2023-11-04T05:19:11.040Z,8.32
2023-11-04T05:24:12.567Z,8.73
2023-11-04T05:29:14.054Z,8.75
2023-11-04T05:34:15.652Z,8.82
2023-11-04T05:39:17.175Z,9.57
2023-11-04T05:44:18.749Z,9.65
2023-11-04T05:49:20.380Z,9.07
2023-11-04T05:54:21.947Z,9.60
2023-11-04T05:59:23.642Z,10.63
2023-11-04T06:04:25.146Z,9.57
2023-11-04T06:09:27.046Z,10.13
2023-11-04T06:14:29.757Z,11.10
2023-11-04T06:19:31.242Z,9.45
2023-11-04T06:24:32.690Z,8.73
2023-11-04T06:29:34.210Z,7.57
2023-11-04T06:34:35.901Z,8.55
2023-11-04T06:39:38.821Z,8.65
2023-11-04T06:44:40.313Z,9.18
2023-11-04T06:49:41.706Z,9.82
2023-11-04T06:54:43.197Z,8.88
2023-11-04T06:59:44.683Z,8.55
2023-11-04T07:04:46.593Z,8.20
2023-11-04T07:09:48.116Z,7.05
2023-11-04T07:14:50.232Z,8.05
2023-11-04T07:19:54.004Z,6.93
2023-11-04T07:24:56.773Z,6.38
2023-11-04T07:29:58.282Z,6.78
2023-11-04T07:34:59.723Z,6.75
2023-11-04T07:40:01.220Z,6.30
2023-11-04T07:45:02.836Z,6.35
2023-11-04T07:50:04.482Z,5.93
2023-11-04T07:55:07.700Z,5.72
2023-11-04T08:00:10.218Z,5.55
2023-11-04T08:05:11.817Z,5.28
2023-11-04T08:10:13.507Z,4.30
2023-11-04T08:15:15.014Z,4.10
2023-11-04T08:20:16.504Z,3.80
2023-11-04T08:25:18.028Z,4.22
2023-11-04T08:30:19.460Z,3.97
2023-11-04T08:35:20.984Z,3.97
2023-11-04T08:40:22.549Z,3.92
2023-11-04T08:45:25.292Z,3.95
2023-11-04T08:50:30.229Z,3.60
2023-11-04T08:55:31.668Z,3.65
2023-11-04T09:00:33.222Z,3.72
2023-11-04T09:05:35.168Z,3.20
2023-11-04T09:10:36.957Z,3.05
2023-11-04T09:15:38.477Z,3.47
2023-11-04T09:20:40.010Z,2.80
2023-11-04T09:25:41.494Z,2.75
2023-11-04T09:30:44.080Z,2.50
2023-11-04T09:35:45.609Z,2.60
2023-11-04T09:40:47.097Z,4.05
2023-11-04T09:45:48.683Z,2.92
2023-11-04T09:50:52.864Z,2.40
2023-11-04T09:55:55.211Z,2.00
2023-11-04T10:00:57.692Z,2.63
2023-11-04T10:05:59.343Z,2.00
2023-11-04T10:11:00.740Z,2.40
2023-11-04T10:16:02.971Z,2.28
2023-11-04T10:21:04.696Z,2.60
2023-11-04T10:26:06.267Z,2.30
2023-11-04T10:31:08.486Z,1.90
2023-11-04T10:36:10.843Z,2.42
2023-11-04T10:41:13.524Z,2.10
2023-11-04T10:46:18.356Z,3.10
2023-11-04T10:51:25.393Z,2.00
2023-11-04T10:56:28.670Z,2.40
2023-11-04T11:01:30.519Z,2.00
2023-11-04T11:06:32.684Z,2.17
2023-11-04T11:11:40.145Z,2.67
2023-11-04T11:16:41.894Z,1.80
2023-11-04T11:21:50.688Z,1.92
2023-11-04T11:26:54.587Z,1.70
2023-11-04T11:32:06.576Z,2.20
2023-11-04T11:37:08.082Z,2.00
2023-11-04T11:42:09.587Z,1.80
2023-11-04T11:47:11.437Z,1.88
2023-11-04T11:52:12.983Z,1.50
2023-11-04T11:57:14.489Z,1.30
2023-11-04T12:02:15.963Z,1.60
2023-11-04T12:07:18.533Z,1.90
2023-11-04T12:12:20.104Z,1.70
2023-11-04T12:17:21.999Z,2.13
2023-11-04T12:22:27.125Z,2.72
2023-11-04T12:27:28.719Z,1.55
2023-11-04T12:32:30.231Z,1.60
2023-11-04T12:37:31.708Z,1.95
2023-11-04T12:42:33.594Z,1.90
2023-11-04T12:47:37.332Z,1.80
2023-11-04T12:52:39.206Z,1.60
2023-11-04T12:57:41.481Z,1.80
2023-11-04T13:02:43.334Z,1.90
2023-11-04T13:07:45.759Z,1.60
2023-11-04T13:12:47.427Z,1.30
2023-11-04T13:17:49.065Z,2.33
2023-11-04T13:22:50.834Z,1.75
2023-11-04T13:27:52.940Z,1.80
2023-11-04T13:32:54.738Z,1.50
2023-11-04T13:37:56.850Z,1.40
2023-11-04T13:42:58.387Z,1.00
2023-11-04T13:48:00.165Z,1.40
2023-11-04T13:53:01.938Z,1.30
2023-11-04T13:58:03.462Z,1.20
2023-11-04T14:03:05.152Z,1.35
2023-11-04T14:08:06.816Z,1.35
2023-11-04T14:13:08.598Z,1.20
2023-11-04T14:18:11.012Z,1.00
2023-11-04T14:23:12.788Z,1.20
2023-11-04T14:28:17.590Z,1.30
2023-11-04T14:33:21.434Z,1.35
2023-11-04T14:38:23.012Z,1.10
2023-11-04T14:43:24.837Z,1.30
2023-11-04T14:48:26.656Z,1.65
2023-11-04T14:53:28.672Z,1.80
2023-11-04T14:58:30.117Z,1.35
2023-11-04T15:03:31.633Z,1.30
2023-11-04T15:08:33.135Z,1.77
2023-11-04T15:13:34.668Z,1.52
2023-11-04T15:18:36.305Z,1.75
2023-11-04T15:23:37.830Z,1.80
2023-11-04T15:28:39.317Z,2.05
2023-11-04T15:33:41.056Z,1.70
2023-11-04T15:38:42.538Z,2.17
2023-11-04T15:43:43.985Z,1.98
2023-11-04T15:48:45.851Z,1.88
2023-11-04T15:53:47.858Z,2.05
2023-11-04T15:58:49.423Z,1.70
2023-11-04T16:03:52.528Z,1.70
2023-11-04T16:08:54.224Z,2.05
2023-11-04T16:13:55.672Z,1.90
2023-11-04T16:18:57.295Z,1.77
2023-11-04T16:23:58.812Z,2.13
2023-11-04T16:29:00.333Z,2.05
2023-11-04T16:34:01.973Z,2.40
2023-11-04T16:39:05.945Z,2.53
2023-11-04T16:44:10.081Z,2.63
2023-11-04T16:49:11.594Z,2.38
2023-11-04T16:54:13.564Z,2.60
2023-11-04T16:59:15.314Z,2.40
2023-11-04T17:04:17.160Z,2.08
2023-11-04T17:09:19.973Z,2.30
2023-11-04T17:14:21.508Z,2.63
2023-11-04T17:19:23.230Z,3.15
2023-11-04T17:24:26.293Z,2.67
2023-11-04T17:29:29.581Z,2.53
2023-11-04T17:34:31.136Z,2.20
2023-11-04T17:39:32.677Z,2.55
2023-11-04T17:44:34.328Z,2.45
2023-11-04T17:49:41.142Z,2.67
2023-11-04T17:54:42.722Z,2.03
2023-11-04T17:59:44.164Z,2.20
2023-11-04T18:04:45.876Z,2.20
2023-11-04T18:09:47.480Z,2.10
2023-11-04T18:14:49.050Z,2.40
2023-11-04T18:19:50.744Z,2.00
2023-11-04T18:24:52.321Z,1.70
2023-11-04T18:29:53.864Z,1.80
2023-11-04T18:34:55.387Z,2.10
2023-11-04T18:39:57.081Z,1.80
2023-11-04T18:44:58.629Z,2.10
2023-11-04T18:50:00.321Z,1.88
2023-11-04T18:55:02.116Z,2.05
2023-11-04T19:00:05.322Z,1.80
2023-11-04T19:05:09.478Z,1.73
2023-11-04T19:10:11.202Z,1.75
2023-11-04T19:15:12.701Z,2.05
2023-11-04T19:20:15.598Z,2.42
2023-11-04T19:25:18.035Z,2.08
2023-11-04T19:30:19.629Z,2.20
2023-11-04T19:35:21.217Z,2.20
2023-11-04T19:40:22.919Z,2.13
2023-11-04T19:45:24.486Z,2.10
2023-11-04T19:50:27.675Z,2.00
2023-11-04T19:55:29.221Z,1.70
2023-11-04T20:00:32.136Z,1.67
2023-11-04T20:05:33.779Z,1.50
2023-11-04T20:10:35.353Z,1.30
2023-11-04T20:15:36.805Z,1.60
2023-11-04T20:20:41.203Z,1.80
2023-11-04T20:25:42.721Z,1.80
2023-11-04T20:30:44.406Z,1.52
2023-11-04T20:35:46.259Z,1.83
2023-11-04T20:40:48.194Z,1.80
2023-11-04T20:45:49.695Z,2.08
2023-11-04T20:50:51.431Z,1.92
2023-11-04T20:55:53.395Z,1.50
2023-11-04T21:00:54.877Z,1.50
2023-11-04T21:05:56.474Z,1.90
2023-11-04T21:10:59.679Z,2.10
2023-11-04T21:16:01.328Z,1.80
2023-11-04T21:21:03.441Z,1.85
2023-11-04T21:26:05.444Z,1.88
2023-11-04T21:31:06.959Z,1.75
2023-11-04T21:36:08.595Z,1.90
2023-11-04T21:41:10.286Z,1.80
2023-11-04T21:46:11.781Z,2.28
2023-11-04T21:51:13.331Z,2.05
2023-11-04T21:56:15.707Z,2.20
2023-11-04T22:01:17.329Z,2.58
2023-11-04T22:06:18.952Z,3.78
2023-11-04T22:11:20.594Z,2.70
2023-11-04T22:16:22.141Z,2.75
2023-11-04T22:21:23.696Z,3.00
2023-11-04T22:26:26.716Z,2.90
2023-11-04T22:31:28.543Z,2.83
2023-11-04T22:36:30.165Z,2.55
2023-11-04T22:41:31.654Z,2.92
2023-11-04T22:46:33.286Z,2.40
2023-11-04T22:51:34.945Z,2.20
2023-11-04T22:56:36.483Z,1.98
2023-11-04T23:01:38.805Z,1.98
2023-11-04T23:06:40.274Z,2.08
2023-11-04T23:11:41.768Z,2.25
2023-11-04T23:16:44.661Z,2.67
2023-11-04T23:21:46.800Z,3.10
2023-11-04T23:26:48.308Z,3.17
2023-11-04T23:31:49.913Z,2.60
2023-11-04T23:36:51.456Z,2.20
2023-11-04T23:41:53.004Z,2.95
2023-11-04T23:46:54.584Z,2.20
2023-11-04T23:51:56.037Z,2.80
2023-11-04T23:56:57.670Z,2.80
